sensor_id;sensor_type;location;lat;lon;timestamp;P1;durP1;ratioP1;P2;durP2;ratioP2
66169;SDS011;66757;44.024;20.456;2023-03-12T00:00:26;17.60;;;7.97;;
66169;SDS011;66757;44.024;20.456;2023-03-12T00:02:52;19.27;;;8.02;;
66169;SDS011;66757;44.024;20.456;2023-03-12T00:05:17;20.10;;;7.25;;
66169;SDS011;66757;44.024;20.456;2023-03-12T00:07:42;23.67;;;10.18;;
66169;SDS011;66757;44.024;20.456;2023-03-12T00:10:08;19.73;;;10.05;;
66169;SDS011;66757;44.024;20.456;2023-03-12T00:12:33;32.05;;;14.40;;
66169;SDS011;66757;44.024;20.456;2023-03-12T00:15:00;30.45;;;14.05;;
66169;SDS011;66757;44.024;20.456;2023-03-12T00:17:25;37.35;;;14.75;;
66169;SDS011;66757;44.024;20.456;2023-03-12T00:19:53;31.33;;;14.50;;
66169;SDS011;66757;44.024;20.456;2023-03-12T00:22:19;29.58;;;12.35;;
66169;SDS011;66757;44.024;20.456;2023-03-12T00:24:53;27.05;;;13.45;;
66169;SDS011;66757;44.024;20.456;2023-03-12T00:27:19;30.55;;;13.25;;
66169;SDS011;66757;44.024;20.456;2023-03-12T00:29:45;31.48;;;14.00;;
66169;SDS011;66757;44.024;20.456;2023-03-12T00:32:10;49.17;;;18.48;;
66169;SDS011;66757;44.024;20.456;2023-03-12T00:34:36;38.22;;;15.55;;
66169;SDS011;66757;44.024;20.456;2023-03-12T00:37:01;35.38;;;13.77;;
66169;SDS011;66757;44.024;20.456;2023-03-12T00:39:26;52.40;;;19.40;;
66169;SDS011;66757;44.024;20.456;2023-03-12T00:41:52;37.38;;;15.00;;
66169;SDS011;66757;44.024;20.456;2023-03-12T00:44:17;66.88;;;19.30;;
66169;SDS011;66757;44.024;20.456;2023-03-12T00:46:42;34.53;;;16.48;;
66169;SDS011;66757;44.024;20.456;2023-03-12T00:49:08;61.85;;;17.83;;
66169;SDS011;66757;44.024;20.456;2023-03-12T00:51:34;31.30;;;13.52;;
66169;SDS011;66757;44.024;20.456;2023-03-12T00:53:59;26.88;;;13.13;;
66169;SDS011;66757;44.024;20.456;2023-03-12T00:56:24;22.45;;;7.80;;
66169;SDS011;66757;44.024;20.456;2023-03-12T00:58:50;19.15;;;7.30;;
66169;SDS011;66757;44.024;20.456;2023-03-12T01:01:15;13.48;;;6.95;;
66169;SDS011;66757;44.024;20.456;2023-03-12T01:03:40;11.68;;;6.95;;
66169;SDS011;66757;44.024;20.456;2023-03-12T01:06:06;14.73;;;7.20;;
66169;SDS011;66757;44.024;20.456;2023-03-12T01:08:31;22.15;;;11.52;;
66169;SDS011;66757;44.024;20.456;2023-03-12T01:10:58;25.05;;;13.10;;
66169;SDS011;66757;44.024;20.456;2023-03-12T01:13:23;21.25;;;9.07;;
66169;SDS011;66757;44.024;20.456;2023-03-12T01:15:49;12.93;;;6.13;;
66169;SDS011;66757;44.024;20.456;2023-03-12T01:18:14;10.75;;;5.05;;
66169;SDS011;66757;44.024;20.456;2023-03-12T01:20:40;15.40;;;6.50;;
66169;SDS011;66757;44.024;20.456;2023-03-12T01:23:05;11.68;;;5.35;;
66169;SDS011;66757;44.024;20.456;2023-03-12T01:25:36;15.27;;;7.57;;
66169;SDS011;66757;44.024;20.456;2023-03-12T01:28:01;15.05;;;7.22;;
66169;SDS011;66757;44.024;20.456;2023-03-12T01:30:27;15.10;;;7.03;;
66169;SDS011;66757;44.024;20.456;2023-03-12T01:32:52;38.45;;;10.45;;
66169;SDS011;66757;44.024;20.456;2023-03-12T01:35:17;14.48;;;7.18;;
66169;SDS011;66757;44.024;20.456;2023-03-12T01:37:43;11.55;;;5.38;;
66169;SDS011;66757;44.024;20.456;2023-03-12T01:40:13;9.93;;;4.93;;
66169;SDS011;66757;44.024;20.456;2023-03-12T01:42:38;9.65;;;4.75;;
66169;SDS011;66757;44.024;20.456;2023-03-12T01:45:04;9.10;;;4.47;;
66169;SDS011;66757;44.024;20.456;2023-03-12T01:47:29;14.15;;;6.32;;
66169;SDS011;66757;44.024;20.456;2023-03-12T01:49:58;14.13;;;5.88;;
66169;SDS011;66757;44.024;20.456;2023-03-12T01:52:26;11.88;;;6.30;;
66169;SDS011;66757;44.024;20.456;2023-03-12T01:54:54;12.48;;;5.30;;
66169;SDS011;66757;44.024;20.456;2023-03-12T01:57:30;10.45;;;4.15;;
66169;SDS011;66757;44.024;20.456;2023-03-12T02:00:07;12.02;;;4.43;;
66169;SDS011;66757;44.024;20.456;2023-03-12T02:02:33;7.50;;;3.90;;
66169;SDS011;66757;44.024;20.456;2023-03-12T02:07:43;8.02;;;4.18;;
66169;SDS011;66757;44.024;20.456;2023-03-12T02:10:09;11.95;;;5.20;;
66169;SDS011;66757;44.024;20.456;2023-03-12T02:12:34;9.50;;;4.00;;
66169;SDS011;66757;44.024;20.456;2023-03-12T02:15:00;9.60;;;4.65;;
66169;SDS011;66757;44.024;20.456;2023-03-12T02:17:25;12.10;;;5.60;;
66169;SDS011;66757;44.024;20.456;2023-03-12T02:22:22;11.70;;;6.13;;
66169;SDS011;66757;44.024;20.456;2023-03-12T02:24:59;11.15;;;6.35;;
66169;SDS011;66757;44.024;20.456;2023-03-12T02:27:31;10.35;;;4.93;;
66169;SDS011;66757;44.024;20.456;2023-03-12T02:29:57;10.25;;;5.15;;
66169;SDS011;66757;44.024;20.456;2023-03-12T02:32:25;9.70;;;5.43;;
66169;SDS011;66757;44.024;20.456;2023-03-12T02:34:52;18.10;;;8.90;;
66169;SDS011;66757;44.024;20.456;2023-03-12T02:37:18;24.70;;;10.45;;
66169;SDS011;66757;44.024;20.456;2023-03-12T02:39:46;14.85;;;6.57;;
66169;SDS011;66757;44.024;20.456;2023-03-12T02:42:13;17.98;;;8.23;;
66169;SDS011;66757;44.024;20.456;2023-03-12T02:44:39;18.50;;;7.28;;
66169;SDS011;66757;44.024;20.456;2023-03-12T02:47:04;10.05;;;4.88;;
66169;SDS011;66757;44.024;20.456;2023-03-12T02:49:31;5.55;;;3.13;;
66169;SDS011;66757;44.024;20.456;2023-03-12T02:51:56;6.45;;;3.42;;
66169;SDS011;66757;44.024;20.456;2023-03-12T02:54:22;11.32;;;4.55;;
66169;SDS011;66757;44.024;20.456;2023-03-12T02:56:48;9.02;;;4.30;;
66169;SDS011;66757;44.024;20.456;2023-03-12T02:59:13;5.25;;;2.78;;
66169;SDS011;66757;44.024;20.456;2023-03-12T03:01:39;7.75;;;2.85;;
66169;SDS011;66757;44.024;20.456;2023-03-12T03:04:05;8.32;;;3.03;;
66169;SDS011;66757;44.024;20.456;2023-03-12T03:06:31;8.02;;;3.35;;
66169;SDS011;66757;44.024;20.456;2023-03-12T03:08:57;5.80;;;2.65;;
66169;SDS011;66757;44.024;20.456;2023-03-12T03:11:23;7.55;;;3.70;;
66169;SDS011;66757;44.024;20.456;2023-03-12T03:13:52;4.97;;;2.67;;
66169;SDS011;66757;44.024;20.456;2023-03-12T03:16:17;5.57;;;2.72;;
66169;SDS011;66757;44.024;20.456;2023-03-12T03:18:42;10.48;;;4.00;;
66169;SDS011;66757;44.024;20.456;2023-03-12T03:21:08;6.05;;;2.58;;
66169;SDS011;66757;44.024;20.456;2023-03-12T03:23:35;7.65;;;2.60;;
66169;SDS011;66757;44.024;20.456;2023-03-12T03:26:00;6.15;;;3.13;;
66169;SDS011;66757;44.024;20.456;2023-03-12T03:28:27;8.18;;;3.72;;
66169;SDS011;66757;44.024;20.456;2023-03-12T03:30:53;7.00;;;3.80;;
66169;SDS011;66757;44.024;20.456;2023-03-12T03:33:18;7.07;;;3.50;;
66169;SDS011;66757;44.024;20.456;2023-03-12T03:35:44;6.10;;;3.47;;
66169;SDS011;66757;44.024;20.456;2023-03-12T03:38:09;8.38;;;4.00;;
66169;SDS011;66757;44.024;20.456;2023-03-12T03:40:35;14.05;;;3.80;;
66169;SDS011;66757;44.024;20.456;2023-03-12T03:43:00;6.90;;;3.00;;
66169;SDS011;66757;44.024;20.456;2023-03-12T03:45:25;8.20;;;3.78;;
66169;SDS011;66757;44.024;20.456;2023-03-12T03:47:51;8.82;;;4.18;;
66169;SDS011;66757;44.024;20.456;2023-03-12T03:50:16;7.53;;;3.83;;
66169;SDS011;66757;44.024;20.456;2023-03-12T03:52:41;7.65;;;3.67;;
66169;SDS011;66757;44.024;20.456;2023-03-12T03:55:07;6.60;;;4.13;;
66169;SDS011;66757;44.024;20.456;2023-03-12T03:57:32;9.55;;;4.65;;
66169;SDS011;66757;44.024;20.456;2023-03-12T03:59:58;13.27;;;6.57;;
66169;SDS011;66757;44.024;20.456;2023-03-12T04:02:24;14.18;;;6.47;;
66169;SDS011;66757;44.024;20.456;2023-03-12T04:04:50;17.40;;;6.53;;
66169;SDS011;66757;44.024;20.456;2023-03-12T04:07:15;8.70;;;4.25;;
66169;SDS011;66757;44.024;20.456;2023-03-12T04:09:41;11.52;;;4.35;;
66169;SDS011;66757;44.024;20.456;2023-03-12T04:12:06;16.63;;;8.40;;
66169;SDS011;66757;44.024;20.456;2023-03-12T04:14:32;9.68;;;4.60;;
66169;SDS011;66757;44.024;20.456;2023-03-12T04:16:57;32.47;;;15.18;;
66169;SDS011;66757;44.024;20.456;2023-03-12T04:19:22;48.40;;;24.45;;
66169;SDS011;66757;44.024;20.456;2023-03-12T04:21:48;32.55;;;18.52;;
66169;SDS011;66757;44.024;20.456;2023-03-12T04:24:13;54.47;;;26.38;;
66169;SDS011;66757;44.024;20.456;2023-03-12T04:26:39;13.20;;;7.07;;
66169;SDS011;66757;44.024;20.456;2023-03-12T04:29:05;11.18;;;5.68;;
66169;SDS011;66757;44.024;20.456;2023-03-12T04:31:30;25.33;;;15.07;;
66169;SDS011;66757;44.024;20.456;2023-03-12T04:33:56;12.85;;;6.40;;
66169;SDS011;66757;44.024;20.456;2023-03-12T04:36:21;10.38;;;5.90;;
66169;SDS011;66757;44.024;20.456;2023-03-12T04:38:47;13.23;;;5.65;;
66169;SDS011;66757;44.024;20.456;2023-03-12T04:41:14;13.00;;;9.27;;
66169;SDS011;66757;44.024;20.456;2023-03-12T04:43:40;10.40;;;7.03;;
66169;SDS011;66757;44.024;20.456;2023-03-12T04:46:05;7.30;;;3.65;;
66169;SDS011;66757;44.024;20.456;2023-03-12T04:48:31;14.60;;;7.63;;
66169;SDS011;66757;44.024;20.456;2023-03-12T04:50:57;28.33;;;15.53;;
66169;SDS011;66757;44.024;20.456;2023-03-12T04:53:22;25.23;;;13.35;;
66169;SDS011;66757;44.024;20.456;2023-03-12T04:55:48;27.33;;;11.88;;
66169;SDS011;66757;44.024;20.456;2023-03-12T04:58:14;24.05;;;12.18;;
66169;SDS011;66757;44.024;20.456;2023-03-12T05:00:40;20.52;;;10.32;;
66169;SDS011;66757;44.024;20.456;2023-03-12T05:03:05;28.35;;;15.80;;
66169;SDS011;66757;44.024;20.456;2023-03-12T05:05:31;35.33;;;19.27;;
66169;SDS011;66757;44.024;20.456;2023-03-12T05:07:56;47.00;;;21.45;;
66169;SDS011;66757;44.024;20.456;2023-03-12T05:10:21;34.67;;;18.80;;
66169;SDS011;66757;44.024;20.456;2023-03-12T05:12:47;23.63;;;11.77;;
66169;SDS011;66757;44.024;20.456;2023-03-12T05:15:12;43.60;;;22.13;;
66169;SDS011;66757;44.024;20.456;2023-03-12T05:17:38;57.53;;;28.20;;
66169;SDS011;66757;44.024;20.456;2023-03-12T05:20:04;108.65;;;54.08;;
66169;SDS011;66757;44.024;20.456;2023-03-12T05:22:30;63.03;;;30.88;;
66169;SDS011;66757;44.024;20.456;2023-03-12T05:24:55;42.25;;;20.80;;
66169;SDS011;66757;44.024;20.456;2023-03-12T05:27:21;38.70;;;19.77;;
66169;SDS011;66757;44.024;20.456;2023-03-12T05:29:46;25.80;;;12.90;;
66169;SDS011;66757;44.024;20.456;2023-03-12T05:32:11;21.23;;;11.20;;
66169;SDS011;66757;44.024;20.456;2023-03-12T05:34:37;21.02;;;12.25;;
66169;SDS011;66757;44.024;20.456;2023-03-12T05:37:02;26.77;;;13.15;;
66169;SDS011;66757;44.024;20.456;2023-03-12T05:39:27;65.22;;;31.30;;
66169;SDS011;66757;44.024;20.456;2023-03-12T05:41:53;47.90;;;24.27;;
66169;SDS011;66757;44.024;20.456;2023-03-12T05:44:21;24.00;;;13.57;;
66169;SDS011;66757;44.024;20.456;2023-03-12T05:46:46;25.48;;;13.90;;
66169;SDS011;66757;44.024;20.456;2023-03-12T05:49:11;24.25;;;12.60;;
66169;SDS011;66757;44.024;20.456;2023-03-12T05:51:37;30.85;;;18.75;;
66169;SDS011;66757;44.024;20.456;2023-03-12T05:54:02;27.52;;;14.48;;
66169;SDS011;66757;44.024;20.456;2023-03-12T05:56:27;24.00;;;11.65;;
66169;SDS011;66757;44.024;20.456;2023-03-12T05:58:53;25.83;;;10.63;;
66169;SDS011;66757;44.024;20.456;2023-03-12T06:01:20;46.25;;;16.08;;
66169;SDS011;66757;44.024;20.456;2023-03-12T06:03:46;24.85;;;12.57;;
66169;SDS011;66757;44.024;20.456;2023-03-12T06:06:12;50.00;;;23.15;;
66169;SDS011;66757;44.024;20.456;2023-03-12T06:08:37;33.63;;;15.73;;
66169;SDS011;66757;44.024;20.456;2023-03-12T06:11:03;24.55;;;12.95;;
66169;SDS011;66757;44.024;20.456;2023-03-12T06:13:28;20.70;;;10.70;;
66169;SDS011;66757;44.024;20.456;2023-03-12T06:16:00;13.20;;;7.03;;
66169;SDS011;66757;44.024;20.456;2023-03-12T06:18:27;12.95;;;6.63;;
66169;SDS011;66757;44.024;20.456;2023-03-12T06:20:52;12.70;;;6.57;;
66169;SDS011;66757;44.024;20.456;2023-03-12T06:23:18;10.75;;;4.53;;
66169;SDS011;66757;44.024;20.456;2023-03-12T06:25:43;6.60;;;3.63;;
66169;SDS011;66757;44.024;20.456;2023-03-12T06:28:09;52.30;;;26.30;;
66169;SDS011;66757;44.024;20.456;2023-03-12T06:30:34;12.77;;;5.13;;
66169;SDS011;66757;44.024;20.456;2023-03-12T06:33:00;7.97;;;4.63;;
66169;SDS011;66757;44.024;20.456;2023-03-12T06:35:25;19.52;;;10.07;;
66169;SDS011;66757;44.024;20.456;2023-03-12T06:37:50;9.25;;;5.22;;
66169;SDS011;66757;44.024;20.456;2023-03-12T06:40:16;9.45;;;4.53;;
66169;SDS011;66757;44.024;20.456;2023-03-12T06:42:42;11.40;;;6.65;;
66169;SDS011;66757;44.024;20.456;2023-03-12T06:45:08;13.75;;;7.65;;
66169;SDS011;66757;44.024;20.456;2023-03-12T06:47:33;8.68;;;2.75;;
66169;SDS011;66757;44.024;20.456;2023-03-12T06:50:00;5.88;;;3.17;;
66169;SDS011;66757;44.024;20.456;2023-03-12T06:52:25;10.75;;;5.90;;
66169;SDS011;66757;44.024;20.456;2023-03-12T06:54:52;12.27;;;7.38;;
66169;SDS011;66757;44.024;20.456;2023-03-12T06:57:17;11.57;;;5.15;;
66169;SDS011;66757;44.024;20.456;2023-03-12T06:59:42;11.90;;;5.82;;
66169;SDS011;66757;44.024;20.456;2023-03-12T07:02:11;15.25;;;8.10;;
66169;SDS011;66757;44.024;20.456;2023-03-12T07:04:36;11.93;;;6.53;;
66169;SDS011;66757;44.024;20.456;2023-03-12T07:07:01;5.18;;;3.33;;
66169;SDS011;66757;44.024;20.456;2023-03-12T07:09:27;4.25;;;2.17;;
66169;SDS011;66757;44.024;20.456;2023-03-12T07:11:52;6.10;;;3.95;;
66169;SDS011;66757;44.024;20.456;2023-03-12T07:14:18;10.30;;;3.15;;
66169;SDS011;66757;44.024;20.456;2023-03-12T07:16:45;9.98;;;7.13;;
66169;SDS011;66757;44.024;20.456;2023-03-12T07:19:10;2.85;;;1.40;;
66169;SDS011;66757;44.024;20.456;2023-03-12T07:21:35;8.68;;;3.60;;
66169;SDS011;66757;44.024;20.456;2023-03-12T07:24:01;7.93;;;4.10;;
66169;SDS011;66757;44.024;20.456;2023-03-12T07:26:31;6.03;;;3.47;;
66169;SDS011;66757;44.024;20.456;2023-03-12T07:28:56;16.98;;;8.60;;
66169;SDS011;66757;44.024;20.456;2023-03-12T07:31:21;13.50;;;6.85;;
66169;SDS011;66757;44.024;20.456;2023-03-12T07:33:47;6.75;;;4.10;;
66169;SDS011;66757;44.024;20.456;2023-03-12T07:36:12;4.50;;;2.50;;
66169;SDS011;66757;44.024;20.456;2023-03-12T07:38:37;5.97;;;2.72;;
66169;SDS011;66757;44.024;20.456;2023-03-12T07:41:03;5.07;;;2.83;;
66169;SDS011;66757;44.024;20.456;2023-03-12T07:43:28;13.35;;;6.07;;
66169;SDS011;66757;44.024;20.456;2023-03-12T07:45:53;9.25;;;5.43;;
66169;SDS011;66757;44.024;20.456;2023-03-12T07:48:19;5.20;;;2.42;;
66169;SDS011;66757;44.024;20.456;2023-03-12T07:50:44;3.42;;;1.90;;
66169;SDS011;66757;44.024;20.456;2023-03-12T07:53:10;4.03;;;2.60;;
66169;SDS011;66757;44.024;20.456;2023-03-12T07:55:35;6.65;;;3.53;;
66169;SDS011;66757;44.024;20.456;2023-03-12T07:58:01;8.65;;;4.30;;
66169;SDS011;66757;44.024;20.456;2023-03-12T08:00:27;13.20;;;7.28;;
66169;SDS011;66757;44.024;20.456;2023-03-12T08:02:52;10.75;;;4.38;;
66169;SDS011;66757;44.024;20.456;2023-03-12T08:05:18;92.80;;;45.45;;
66169;SDS011;66757;44.024;20.456;2023-03-12T08:07:43;24.63;;;9.90;;
66169;SDS011;66757;44.024;20.456;2023-03-12T08:10:09;8.48;;;4.05;;
66169;SDS011;66757;44.024;20.456;2023-03-12T08:12:34;11.57;;;6.40;;
66169;SDS011;66757;44.024;20.456;2023-03-12T08:15:02;7.50;;;3.53;;
66169;SDS011;66757;44.024;20.456;2023-03-12T08:17:27;13.40;;;5.97;;
66169;SDS011;66757;44.024;20.456;2023-03-12T08:19:53;10.88;;;5.10;;
66169;SDS011;66757;44.024;20.456;2023-03-12T08:22:18;14.82;;;6.90;;
66169;SDS011;66757;44.024;20.456;2023-03-12T08:24:44;14.35;;;7.13;;
66169;SDS011;66757;44.024;20.456;2023-03-12T08:27:10;12.52;;;6.15;;
66169;SDS011;66757;44.024;20.456;2023-03-12T08:29:37;28.55;;;11.77;;
66169;SDS011;66757;44.024;20.456;2023-03-12T08:32:03;12.23;;;5.97;;
66169;SDS011;66757;44.024;20.456;2023-03-12T08:34:28;11.43;;;5.13;;
66169;SDS011;66757;44.024;20.456;2023-03-12T08:36:54;31.15;;;12.27;;
66169;SDS011;66757;44.024;20.456;2023-03-12T08:39:20;28.00;;;13.05;;
66169;SDS011;66757;44.024;20.456;2023-03-12T08:41:45;34.15;;;16.05;;
66169;SDS011;66757;44.024;20.456;2023-03-12T08:44:10;16.27;;;9.43;;
66169;SDS011;66757;44.024;20.456;2023-03-12T08:46:36;15.45;;;8.05;;
66169;SDS011;66757;44.024;20.456;2023-03-12T08:49:01;11.48;;;6.65;;
66169;SDS011;66757;44.024;20.456;2023-03-12T08:51:26;11.00;;;8.73;;
66169;SDS011;66757;44.024;20.456;2023-03-12T08:53:51;12.40;;;6.10;;
66169;SDS011;66757;44.024;20.456;2023-03-12T08:56:17;4.35;;;1.85;;
66169;SDS011;66757;44.024;20.456;2023-03-12T08:58:42;12.88;;;6.65;;
66169;SDS011;66757;44.024;20.456;2023-03-12T09:01:08;6.80;;;2.67;;
66169;SDS011;66757;44.024;20.456;2023-03-12T09:03:33;18.10;;;6.43;;
66169;SDS011;66757;44.024;20.456;2023-03-12T09:06:04;7.72;;;3.50;;
66169;SDS011;66757;44.024;20.456;2023-03-12T09:08:30;9.43;;;4.00;;
66169;SDS011;66757;44.024;20.456;2023-03-12T09:10:58;6.63;;;4.03;;
66169;SDS011;66757;44.024;20.456;2023-03-12T09:13:23;5.90;;;2.38;;
66169;SDS011;66757;44.024;20.456;2023-03-12T09:15:50;9.65;;;3.72;;
66169;SDS011;66757;44.024;20.456;2023-03-12T09:18:15;4.25;;;0.88;;
66169;SDS011;66757;44.024;20.456;2023-03-12T09:20:41;8.10;;;4.43;;
66169;SDS011;66757;44.024;20.456;2023-03-12T09:23:06;21.55;;;13.73;;
66169;SDS011;66757;44.024;20.456;2023-03-12T09:25:31;25.63;;;10.02;;
66169;SDS011;66757;44.024;20.456;2023-03-12T09:27:57;20.15;;;13.20;;
66169;SDS011;66757;44.024;20.456;2023-03-12T09:30:22;14.32;;;6.93;;
66169;SDS011;66757;44.024;20.456;2023-03-12T09:32:52;15.98;;;7.35;;
66169;SDS011;66757;44.024;20.456;2023-03-12T09:35:17;9.10;;;5.10;;
66169;SDS011;66757;44.024;20.456;2023-03-12T09:37:46;4.65;;;2.30;;
66169;SDS011;66757;44.024;20.456;2023-03-12T09:40:15;9.57;;;3.53;;
66169;SDS011;66757;44.024;20.456;2023-03-12T09:45:26;5.53;;;3.90;;
66169;SDS011;66757;44.024;20.456;2023-03-12T09:47:53;6.55;;;3.38;;
66169;SDS011;66757;44.024;20.456;2023-03-12T09:50:20;14.32;;;3.40;;
66169;SDS011;66757;44.024;20.456;2023-03-12T09:52:52;6.63;;;3.70;;
66169;SDS011;66757;44.024;20.456;2023-03-12T09:55:19;4.90;;;3.50;;
66169;SDS011;66757;44.024;20.456;2023-03-12T09:57:46;13.15;;;5.55;;
66169;SDS011;66757;44.024;20.456;2023-03-12T10:00:21;7.28;;;4.82;;
66169;SDS011;66757;44.024;20.456;2023-03-12T10:07:52;14.48;;;7.60;;
66169;SDS011;66757;44.024;20.456;2023-03-12T10:23:29;7.35;;;3.97;;
66169;SDS011;66757;44.024;20.456;2023-03-12T10:26:05;13.77;;;4.15;;
66169;SDS011;66757;44.024;20.456;2023-03-12T10:28:33;16.63;;;8.68;;
66169;SDS011;66757;44.024;20.456;2023-03-12T10:31:11;10.95;;;4.38;;
66169;SDS011;66757;44.024;20.456;2023-03-12T10:33:39;8.02;;;5.03;;
66169;SDS011;66757;44.024;20.456;2023-03-12T10:36:11;4.43;;;2.33;;
66169;SDS011;66757;44.024;20.456;2023-03-12T10:38:38;15.52;;;8.68;;
66169;SDS011;66757;44.024;20.456;2023-03-12T10:44:01;7.00;;;3.58;;
66169;SDS011;66757;44.024;20.456;2023-03-12T10:46:44;7.85;;;5.28;;
66169;SDS011;66757;44.024;20.456;2023-03-12T10:49:22;2.95;;;1.42;;
66169;SDS011;66757;44.024;20.456;2023-03-12T10:54:41;2.20;;;1.05;;
66169;SDS011;66757;44.024;20.456;2023-03-12T10:57:09;7.05;;;2.92;;
66169;SDS011;66757;44.024;20.456;2023-03-12T10:59:35;9.25;;;5.03;;
66169;SDS011;66757;44.024;20.456;2023-03-12T11:02:02;2.72;;;1.30;;
66169;SDS011;66757;44.024;20.456;2023-03-12T11:04:31;4.00;;;2.38;;
66169;SDS011;66757;44.024;20.456;2023-03-12T11:09:31;6.63;;;1.85;;
66169;SDS011;66757;44.024;20.456;2023-03-12T11:11:56;2.45;;;1.02;;
66169;SDS011;66757;44.024;20.456;2023-03-12T11:14:23;8.45;;;4.53;;
66169;SDS011;66757;44.024;20.456;2023-03-12T11:16:49;5.47;;;3.17;;
66169;SDS011;66757;44.024;20.456;2023-03-12T11:19:25;4.60;;;2.88;;
66169;SDS011;66757;44.024;20.456;2023-03-12T11:22:00;7.05;;;5.55;;
66169;SDS011;66757;44.024;20.456;2023-03-12T11:24:26;8.88;;;3.35;;
66169;SDS011;66757;44.024;20.456;2023-03-12T11:27:39;7.15;;;3.45;;
66169;SDS011;66757;44.024;20.456;2023-03-12T11:29:38;4.35;;;2.45;;
66169;SDS011;66757;44.024;20.456;2023-03-12T11:34:36;7.05;;;3.95;;
66169;SDS011;66757;44.024;20.456;2023-03-12T11:37:06;10.32;;;4.45;;
66169;SDS011;66757;44.024;20.456;2023-03-12T11:42:06;4.07;;;2.20;;
66169;SDS011;66757;44.024;20.456;2023-03-12T11:44:37;4.53;;;3.05;;
66169;SDS011;66757;44.024;20.456;2023-03-12T11:54:49;2.03;;;1.50;;
66169;SDS011;66757;44.024;20.456;2023-03-12T11:57:18;3.85;;;2.45;;
66169;SDS011;66757;44.024;20.456;2023-03-12T12:17:22;7.93;;;3.65;;
66169;SDS011;66757;44.024;20.456;2023-03-12T12:25:15;2.97;;;2.33;;
66169;SDS011;66757;44.024;20.456;2023-03-12T12:30:26;3.90;;;1.48;;
66169;SDS011;66757;44.024;20.456;2023-03-12T12:35:38;5.70;;;3.97;;
66169;SDS011;66757;44.024;20.456;2023-03-12T12:45:27;9.30;;;5.85;;
66169;SDS011;66757;44.024;20.456;2023-03-12T12:47:59;9.52;;;4.03;;
66169;SDS011;66757;44.024;20.456;2023-03-12T12:50:26;11.75;;;8.73;;
66169;SDS011;66757;44.024;20.456;2023-03-12T12:52:56;9.52;;;5.00;;
66169;SDS011;66757;44.024;20.456;2023-03-12T12:55:28;4.95;;;2.65;;
66169;SDS011;66757;44.024;20.456;2023-03-12T12:57:58;9.15;;;3.25;;
66169;SDS011;66757;44.024;20.456;2023-03-12T13:03:10;8.63;;;5.18;;
66169;SDS011;66757;44.024;20.456;2023-03-12T13:08:02;9.65;;;4.82;;
66169;SDS011;66757;44.024;20.456;2023-03-12T13:13:03;11.93;;;3.67;;
66169;SDS011;66757;44.024;20.456;2023-03-12T13:20:20;5.30;;;2.20;;
66169;SDS011;66757;44.024;20.456;2023-03-12T13:27:45;11.18;;;4.18;;
66169;SDS011;66757;44.024;20.456;2023-03-12T13:30:40;14.82;;;7.43;;
66169;SDS011;66757;44.024;20.456;2023-03-12T13:33:11;26.88;;;12.90;;
66169;SDS011;66757;44.024;20.456;2023-03-12T13:35:37;24.67;;;12.82;;
66169;SDS011;66757;44.024;20.456;2023-03-12T13:38:04;10.95;;;3.70;;
66169;SDS011;66757;44.024;20.456;2023-03-12T13:40:36;10.75;;;4.65;;
66169;SDS011;66757;44.024;20.456;2023-03-12T13:45:30;9.73;;;4.10;;
66169;SDS011;66757;44.024;20.456;2023-03-12T13:47:57;11.93;;;6.35;;
66169;SDS011;66757;44.024;20.456;2023-03-12T13:50:24;8.20;;;4.53;;
66169;SDS011;66757;44.024;20.456;2023-03-12T13:53:00;8.10;;;5.15;;
66169;SDS011;66757;44.024;20.456;2023-03-12T13:55:27;8.88;;;2.78;;
66169;SDS011;66757;44.024;20.456;2023-03-12T13:57:57;5.03;;;3.10;;
66169;SDS011;66757;44.024;20.456;2023-03-12T14:03:02;11.48;;;6.00;;
66169;SDS011;66757;44.024;20.456;2023-03-12T14:05:28;7.47;;;3.78;;
66169;SDS011;66757;44.024;20.456;2023-03-12T14:13:00;21.13;;;5.35;;
66169;SDS011;66757;44.024;20.456;2023-03-12T14:15:41;15.50;;;5.82;;
66169;SDS011;66757;44.024;20.456;2023-03-12T14:18:17;5.55;;;4.18;;
66169;SDS011;66757;44.024;20.456;2023-03-12T14:20:46;10.35;;;4.47;;
66169;SDS011;66757;44.024;20.456;2023-03-12T14:23:13;5.85;;;2.90;;
66169;SDS011;66757;44.024;20.456;2023-03-12T14:25:41;8.05;;;4.50;;
66169;SDS011;66757;44.024;20.456;2023-03-12T14:28:12;5.70;;;2.55;;
66169;SDS011;66757;44.024;20.456;2023-03-12T14:33:10;3.95;;;3.20;;
66169;SDS011;66757;44.024;20.456;2023-03-12T14:35:48;10.80;;;5.45;;
66169;SDS011;66757;44.024;20.456;2023-03-12T14:38:24;13.60;;;7.22;;
66169;SDS011;66757;44.024;20.456;2023-03-12T14:41:12;7.55;;;4.85;;
66169;SDS011;66757;44.024;20.456;2023-03-12T14:43:38;11.88;;;7.20;;
66169;SDS011;66757;44.024;20.456;2023-03-12T14:46:11;6.85;;;3.22;;
66169;SDS011;66757;44.024;20.456;2023-03-12T14:48:37;11.23;;;5.85;;
66169;SDS011;66757;44.024;20.456;2023-03-12T14:51:03;13.40;;;8.52;;
66169;SDS011;66757;44.024;20.456;2023-03-12T14:53:30;8.57;;;5.50;;
66169;SDS011;66757;44.024;20.456;2023-03-12T14:58:28;16.10;;;8.45;;
66169;SDS011;66757;44.024;20.456;2023-03-12T15:00:58;7.78;;;4.93;;
66169;SDS011;66757;44.024;20.456;2023-03-12T15:03:24;9.95;;;5.72;;
66169;SDS011;66757;44.024;20.456;2023-03-12T15:05:51;10.77;;;5.60;;
66169;SDS011;66757;44.024;20.456;2023-03-12T15:08:16;22.38;;;10.02;;
66169;SDS011;66757;44.024;20.456;2023-03-12T15:10:46;14.70;;;6.88;;
66169;SDS011;66757;44.024;20.456;2023-03-12T15:13:13;14.48;;;9.75;;
66169;SDS011;66757;44.024;20.456;2023-03-12T15:15:46;12.65;;;7.78;;
66169;SDS011;66757;44.024;20.456;2023-03-12T15:18:13;19.95;;;11.40;;
66169;SDS011;66757;44.024;20.456;2023-03-12T15:20:39;17.55;;;10.55;;
66169;SDS011;66757;44.024;20.456;2023-03-12T15:23:05;8.43;;;6.40;;
66169;SDS011;66757;44.024;20.456;2023-03-12T15:25:32;6.82;;;5.10;;
66169;SDS011;66757;44.024;20.456;2023-03-12T15:30:32;19.80;;;9.93;;
66169;SDS011;66757;44.024;20.456;2023-03-12T15:35:30;6.88;;;4.45;;
66169;SDS011;66757;44.024;20.456;2023-03-12T15:37:56;6.00;;;3.97;;
66169;SDS011;66757;44.024;20.456;2023-03-12T15:40:23;10.57;;;4.20;;
66169;SDS011;66757;44.024;20.456;2023-03-12T15:42:49;7.47;;;4.88;;
66169;SDS011;66757;44.024;20.456;2023-03-12T15:45:34;8.50;;;5.10;;
66169;SDS011;66757;44.024;20.456;2023-03-12T15:50:29;11.20;;;5.13;;
66169;SDS011;66757;44.024;20.456;2023-03-12T15:53:02;9.68;;;5.55;;
66169;SDS011;66757;44.024;20.456;2023-03-12T15:55:29;7.85;;;4.05;;
66169;SDS011;66757;44.024;20.456;2023-03-12T15:57:55;9.55;;;4.50;;
66169;SDS011;66757;44.024;20.456;2023-03-12T16:02:56;15.23;;;7.45;;
66169;SDS011;66757;44.024;20.456;2023-03-12T16:05:24;5.65;;;3.17;;
66169;SDS011;66757;44.024;20.456;2023-03-12T16:07:49;7.72;;;3.40;;
66169;SDS011;66757;44.024;20.456;2023-03-12T16:10:16;16.55;;;9.32;;
66169;SDS011;66757;44.024;20.456;2023-03-12T16:12:42;14.73;;;7.50;;
66169;SDS011;66757;44.024;20.456;2023-03-12T16:15:29;11.23;;;5.15;;
66169;SDS011;66757;44.024;20.456;2023-03-12T16:20:18;14.80;;;6.95;;
66169;SDS011;66757;44.024;20.456;2023-03-12T16:22:44;19.08;;;6.43;;
66169;SDS011;66757;44.024;20.456;2023-03-12T16:25:09;10.90;;;6.10;;
66169;SDS011;66757;44.024;20.456;2023-03-12T16:27:37;11.32;;;6.82;;
66169;SDS011;66757;44.024;20.456;2023-03-12T16:30:05;22.33;;;10.82;;